Time;durP1;ratioP1;P1;durP2;ratioP2;P2;SDS_P1;SDS_P2;PMS_P1;PMS_P2;Temp;Humidity;BMP_temperature;BMP_pressure;BME280_temperature;BME280_humidity;BME280_pressure;Samples;Min_cycle;Max_cycle;Signal;HPM_P1;HPM_P2
2023/10/26 00:01:26;;;;;;;31.67;20.23;;;9.50;99.90;;;;;;4998509;28;20022;-74
2023/10/26 00:03:52;;;;;;;34.55;20.60;;;9.50;99.90;;;;;;5009534;28;20036;-73
2023/10/26 00:06:17;;;;;;;35.28;20.23;;;9.50;99.90;;;;;;5010474;28;20028;-74
2023/10/26 00:08:43;;;;;;;31.63;20.70;;;9.40;99.90;;;;;;5009401;28;20033;-74
2023/10/26 00:11:08;;;;;;;30.65;20.15;;;9.40;99.90;;;;;;5008099;28;20487;-74
2023/10/26 00:13:34;;;;;;;33.10;20.77;;;9.40;99.90;;;;;;5009974;28;20057;-74
2023/10/26 00:15:59;;;;;;;41.60;21.85;;;9.40;99.90;;;;;;5008762;28;20030;-74
2023/10/26 00:18:25;;;;;;;32.40;20.92;;;9.40;99.90;;;;;;5008456;28;20029;-74
2023/10/26 00:20:58;;;;;;;30.85;20.50;;;9.40;99.90;;;;;;5008283;28;20020;-74
2023/10/26 00:23:24;;;;;;;33.60;20.60;;;9.30;99.90;;;;;;5005694;28;20023;-74
2023/10/26 00:25:50;;;;;;;32.05;19.92;;;9.30;99.90;;;;;;4992137;28;20092;-74
2023/10/26 00:28:15;;;;;;;32.53;19.77;;;9.30;99.90;;;;;;5006245;28;20037;-74
2023/10/26 00:30:41;;;;;;;32.25;19.73;;;9.30;99.90;;;;;;5008979;28;20092;-74
2023/10/26 00:33:06;;;;;;;29.50;18.98;;;9.30;99.90;;;;;;5007412;28;20058;-75
2023/10/26 00:35:32;;;;;;;26.80;16.75;;;9.20;99.90;;;;;;4997082;28;20022;-75
2023/10/26 00:37:57;;;;;;;29.00;18.60;;;9.20;99.90;;;;;;5009336;28;20454;-75
2023/10/26 00:40:23;;;;;;;25.40;17.13;;;9.20;99.90;;;;;;5009113;28;20390;-75
2023/10/26 00:42:49;;;;;;;27.48;17.52;;;9.20;99.90;;;;;;4997875;28;20112;-75
2023/10/26 00:45:14;;;;;;;26.42;17.42;;;9.10;99.90;;;;;;5009712;28;20115;-75
2023/10/26 00:47:40;;;;;;;22.98;16.00;;;9.10;99.90;;;;;;4997874;28;20030;-75
2023/10/26 00:50:07;;;;;;;27.15;16.10;;;9.10;99.90;;;;;;5009273;28;20092;-75
2023/10/26 00:52:35;;;;;;;24.05;16.63;;;9.10;99.90;;;;;;5004552;28;20047;-75
2023/10/26 00:55:03;;;;;;;23.33;16.02;;;9.00;99.90;;;;;;5003937;28;20035;-75
2023/10/26 00:57:30;;;;;;;21.92;14.98;;;9.00;99.90;;;;;;5013374;28;20370;-73
2023/10/26 00:59:57;;;;;;;21.52;15.27;;;9.00;99.90;;;;;;5007937;28;20026;-75
2023/10/26 01:02:24;;;;;;;23.50;16.05;;;8.90;99.90;;;;;;5012290;28;20104;-75
2023/10/26 01:04:51;;;;;;;22.58;15.68;;;9.00;99.90;;;;;;5008647;28;20037;-75
2023/10/26 01:07:16;;;;;;;23.48;15.40;;;8.90;99.90;;;;;;4996662;28;20019;-75
2023/10/26 01:09:42;;;;;;;23.45;15.63;;;8.90;99.90;;;;;;5012229;28;20037;-75
2023/10/26 01:12:09;;;;;;;21.10;14.90;;;8.90;99.90;;;;;;5012486;28;20037;-75
2023/10/26 01:14:35;;;;;;;21.45;14.82;;;8.90;99.90;;;;;;5006811;28;20029;-75
2023/10/26 01:17:01;;;;;;;20.65;14.80;;;8.90;99.90;;;;;;5010243;28;21140;-75
2023/10/26 01:19:37;;;;;;;24.85;15.10;;;8.80;99.90;;;;;;5010744;28;20037;-75
2023/10/26 01:22:03;;;;;;;23.52;14.68;;;8.80;99.90;;;;;;5012232;28;20100;-75
2023/10/26 01:24:28;;;;;;;21.42;14.57;;;8.80;99.90;;;;;;5012830;28;20153;-75
2023/10/26 01:26:54;;;;;;;22.38;14.90;;;8.80;99.90;;;;;;5012309;28;20494;-75
2023/10/26 01:29:20;;;;;;;22.95;15.50;;;8.80;99.90;;;;;;5006043;28;20523;-75
2023/10/26 01:31:45;;;;;;;23.00;16.05;;;8.70;99.90;;;;;;5006648;28;20022;-75
2023/10/26 01:34:11;;;;;;;27.02;14.25;;;8.70;99.90;;;;;;5011604;28;20033;-75
2023/10/26 01:36:37;;;;;;;17.10;11.60;;;8.70;99.90;;;;;;5012233;28;20501;-75
2023/10/26 01:39:02;;;;;;;18.80;9.90;;;8.60;99.90;;;;;;5010498;28;20026;-75
2023/10/26 01:41:32;;;;;;;12.45;9.02;;;8.60;99.90;;;;;;5011757;28;20080;-75
2023/10/26 01:43:58;;;;;;;12.02;9.27;;;8.60;99.90;;;;;;5012223;28;20022;-75
2023/10/26 01:46:24;;;;;;;38.38;11.20;;;8.60;99.90;;;;;;5008880;28;20026;-75
2023/10/26 01:48:49;;;;;;;16.92;9.80;;;8.50;99.90;;;;;;5011786;28;20061;-73
2023/10/26 01:51:15;;;;;;;26.17;10.32;;;8.50;99.90;;;;;;5009398;28;20450;-73
2023/10/26 01:53:40;;;;;;;18.85;9.43;;;8.50;99.90;;;;;;5011822;28;20363;-74
2023/10/26 01:56:06;;;;;;;36.67;9.73;;;8.50;99.90;;;;;;5006020;28;20100;-74
2023/10/26 01:58:32;;;;;;;68.63;11.57;;;8.40;99.90;;;;;;5011140;28;20029;-74
2023/10/26 02:00:57;;;;;;;63.42;13.02;;;8.40;99.90;;;;;;5011815;28;20021;-73
2023/10/26 02:03:23;;;;;;;83.10;13.52;;;8.40;99.90;;;;;;4998501;28;20038;-74
2023/10/26 02:05:49;;;;;;;68.93;12.90;;;8.40;99.90;;;;;;5011175;28;20021;-74
2023/10/26 02:08:14;;;;;;;60.67;12.75;;;8.40;99.90;;;;;;5013219;28;20025;-73
2023/10/26 02:10:41;;;;;;;42.55;13.30;;;8.40;99.90;;;;;;5014307;28;20029;-73
2023/10/26 02:13:07;;;;;;;18.92;12.90;;;8.40;99.90;;;;;;5013823;28;20118;-73
2023/10/26 02:15:32;;;;;;;25.00;13.40;;;8.40;99.90;;;;;;5013328;28;20108;-73
2023/10/26 02:17:58;;;;;;;17.90;12.48;;;8.40;99.90;;;;;;5011784;28;20022;-74
2023/10/26 02:20:23;;;;;;;18.70;12.60;;;8.40;99.90;;;;;;5011435;28;20022;-74
2023/10/26 02:22:49;;;;;;;21.33;13.00;;;8.40;99.90;;;;;;5011309;28;20022;-74
2023/10/26 02:25:15;;;;;;;20.30;13.48;;;8.40;99.90;;;;;;5009842;28;20529;-74
2023/10/26 02:27:40;;;;;;;16.05;11.55;;;8.40;99.90;;;;;;5009773;28;20489;-74
2023/10/26 02:30:07;;;;;;;27.75;13.60;;;8.40;99.90;;;;;;5010990;28;20503;-74
2023/10/26 02:32:33;;;;;;;26.08;14.57;;;8.40;99.90;;;;;;5007422;28;20485;-74
2023/10/26 02:34:59;;;;;;;22.52;12.93;;;8.30;99.90;;;;;;5004211;28;20025;-74
2023/10/26 02:37:24;;;;;;;18.27;12.73;;;8.30;99.90;;;;;;4994308;28;20022;-74
2023/10/26 02:39:50;;;;;;;20.00;13.30;;;8.30;99.90;;;;;;5007318;28;20026;-74
2023/10/26 02:42:15;;;;;;;17.52;12.98;;;8.30;99.90;;;;;;5007274;28;20086;-74
2023/10/26 02:44:41;;;;;;;19.80;12.80;;;8.30;99.90;;;;;;5010667;28;20030;-74
2023/10/26 02:47:07;;;;;;;22.00;13.18;;;8.30;99.90;;;;;;5010974;28;20144;-74
2023/10/26 02:49:33;;;;;;;18.67;13.00;;;8.30;99.90;;;;;;5010112;28;20036;-74
2023/10/26 02:51:58;;;;;;;18.67;13.30;;;8.30;99.90;;;;;;5010348;28;20038;-74
2023/10/26 02:54:27;;;;;;;21.13;13.20;;;8.30;99.90;;;;;;4992521;28;20502;-74
2023/10/26 02:56:53;;;;;;;22.75;14.23;;;8.30;99.90;;;;;;4998660;28;20113;-74
2023/10/26 02:59:19;;;;;;;19.20;13.23;;;8.30;99.90;;;;;;5009846;28;20032;-74
2023/10/26 03:01:45;;;;;;;20.50;12.80;;;8.30;99.90;;;;;;5010744;28;20455;-74
2023/10/26 03:04:11;;;;;;;20.13;13.27;;;8.30;99.90;;;;;;5003461;28;20022;-74
2023/10/26 03:06:40;;;;;;;18.48;12.50;;;8.30;99.90;;;;;;5006741;28;20033;-74
2023/10/26 03:09:08;;;;;;;17.20;12.35;;;8.30;99.90;;;;;;5009780;28;20033;-74
2023/10/26 03:11:34;;;;;;;17.42;12.48;;;8.30;99.90;;;;;;5006316;28;20018;-74
2023/10/26 03:14:00;;;;;;;18.98;12.75;;;8.30;99.90;;;;;;5010679;28;20029;-74
2023/10/26 03:16:25;;;;;;;53.60;15.15;;;8.30;99.90;;;;;;5007439;28;20530;-74
2023/10/26 03:18:51;;;;;;;23.85;14.85;;;8.30;99.90;;;;;;5010403;28;20253;-74
2023/10/26 03:21:18;;;;;;;26.65;14.68;;;8.20;99.90;;;;;;5010127;28;20022;-74
2023/10/26 03:23:44;;;;;;;25.48;14.43;;;8.20;99.90;;;;;;5009972;28;20022;-74
2023/10/26 03:26:11;;;;;;;21.80;14.88;;;8.20;99.90;;;;;;5007941;28;20538;-74
2023/10/26 03:28:36;;;;;;;21.27;14.25;;;8.20;99.90;;;;;;5009812;28;20482;-74
2023/10/26 03:31:02;;;;;;;23.15;14.30;;;8.20;99.90;;;;;;4999609;28;20037;-74
2023/10/26 03:33:28;;;;;;;21.35;14.00;;;8.20;99.90;;;;;;5005830;28;20425;-74
2023/10/26 03:35:53;;;;;;;18.67;12.93;;;8.20;99.90;;;;;;5002139;28;20049;-74
2023/10/26 03:38:19;;;;;;;23.85;13.18;;;8.20;99.90;;;;;;5006857;28;20026;-74
2023/10/26 03:40:44;;;;;;;19.98;12.20;;;8.20;99.90;;;;;;5010264;28;20101;-74
2023/10/26 03:43:10;;;;;;;20.83;11.57;;;8.20;99.90;;;;;;5008526;28;20040;-74
2023/10/26 03:45:35;;;;;;;20.63;13.07;;;8.20;99.90;;;;;;5009598;28;20487;-74
2023/10/26 03:48:01;;;;;;;23.88;12.63;;;8.10;99.90;;;;;;5009640;28;20087;-74
2023/10/26 03:50:26;;;;;;;16.35;11.52;;;8.10;99.90;;;;;;5006948;28;20030;-74
2023/10/26 03:52:52;;;;;;;23.35;13.05;;;8.10;99.90;;;;;;5006150;28;20138;-74
2023/10/26 03:55:17;;;;;;;21.77;12.15;;;8.10;99.90;;;;;;5003755;28;20030;-74
2023/10/26 03:57:44;;;;;;;24.40;13.27;;;8.10;99.90;;;;;;5005275;28;20042;-74
2023/10/26 04:00:10;;;;;;;19.75;12.80;;;8.10;99.90;;;;;;5004441;28;20026;-74
2023/10/26 04:02:36;;;;;;;20.67;13.32;;;8.10;99.90;;;;;;5004564;28;20116;-74
2023/10/26 04:05:04;;;;;;;22.27;12.50;;;8.10;99.90;;;;;;5006221;28;20650;-74
2023/10/26 04:07:29;;;;;;;20.50;13.48;;;8.10;99.90;;;;;;5010230;28;20347;-74
2023/10/26 04:09:55;;;;;;;39.95;13.38;;;8.10;99.90;;;;;;5009648;28;20036;-74
2023/10/26 04:12:21;;;;;;;30.08;14.23;;;8.10;99.90;;;;;;5009825;28;20101;-73
2023/10/26 04:14:46;;;;;;;65.95;15.10;;;8.10;99.90;;;;;;5010115;28;20018;-74
2023/10/26 04:17:12;;;;;;;24.98;14.90;;;8.10;99.90;;;;;;5009984;28;20029;-74
2023/10/26 04:19:38;;;;;;;23.02;14.30;;;8.10;99.90;;;;;;5009587;28;20022;-74
2023/10/26 04:22:05;;;;;;;22.98;14.38;;;8.20;99.90;;;;;;5009713;28;20033;-74
2023/10/26 04:24:32;;;;;;;21.70;13.63;;;8.20;99.90;;;;;;5010114;28;20030;-74
2023/10/26 04:26:57;;;;;;;20.27;14.02;;;8.20;99.90;;;;;;5010405;28;20467;-74
2023/10/26 04:29:23;;;;;;;48.10;14.13;;;8.20;99.90;;;;;;5010023;28;20072;-74
2023/10/26 04:31:48;;;;;;;24.80;14.27;;;8.20;99.90;;;;;;5013544;28;20485;-74
2023/10/26 04:34:15;;;;;;;56.35;16.45;;;8.20;99.90;;;;;;5003376;28;20053;-74
2023/10/26 04:36:40;;;;;;;23.83;14.93;;;8.10;99.90;;;;;;5011935;28;20097;-74
2023/10/26 04:39:09;;;;;;;24.65;15.55;;;8.10;99.90;;;;;;5012645;28;20121;-74
2023/10/26 04:41:35;;;;;;;24.30;16.00;;;8.10;99.90;;;;;;5013334;28;20052;-74
2023/10/26 04:44:01;;;;;;;25.58;15.90;;;8.10;99.90;;;;;;5009958;28;20080;-74
2023/10/26 04:46:27;;;;;;;23.15;15.43;;;8.10;99.90;;;;;;5005757;28;20026;-75
2023/10/26 04:48:53;;;;;;;22.90;15.60;;;8.10;99.90;;;;;;5008415;28;20620;-75
2023/10/26 04:51:18;;;;;;;23.90;16.23;;;8.10;99.90;;;;;;5011609;28;20120;-74
2023/10/26 04:53:44;;;;;;;26.05;15.35;;;8.10;99.90;;;;;;5013227;28;20441;-74
2023/10/26 04:56:11;;;;;;;29.27;16.90;;;8.10;99.90;;;;;;5012801;28;20022;-74
2023/10/26 04:58:37;;;;;;;29.80;15.30;;;8.20;99.90;;;;;;5009852;28;20026;-75
2023/10/26 05:01:04;;;;;;;22.98;15.88;;;8.10;99.90;;;;;;5012671;28;20014;-74
2023/10/26 05:03:29;;;;;;;22.00;15.73;;;8.10;99.90;;;;;;4994780;28;20029;-74
2023/10/26 05:05:55;;;;;;;23.20;15.68;;;8.10;99.90;;;;;;5012020;28;20033;-75
2023/10/26 05:08:20;;;;;;;25.45;16.35;;;8.10;99.90;;;;;;5012081;28;20120;-74
2023/10/26 05:10:46;;;;;;;22.08;15.63;;;8.10;99.90;;;;;;5009120;28;20105;-74
2023/10/26 05:13:12;;;;;;;23.35;15.80;;;8.10;99.90;;;;;;5012881;28;20030;-75
2023/10/26 05:15:38;;;;;;;24.23;15.25;;;8.10;99.90;;;;;;5008142;28;20022;-75
2023/10/26 05:18:03;;;;;;;52.85;16.23;;;8.10;99.90;;;;;;5014155;28;20490;-75
2023/10/26 05:20:30;;;;;;;23.65;15.32;;;8.10;99.90;;;;;;5014088;28;20014;-75
2023/10/26 05:22:56;;;;;;;24.17;16.33;;;8.10;99.90;;;;;;5007605;28;20049;-75
2023/10/26 05:25:21;;;;;;;32.28;17.35;;;8.10;99.90;;;;;;5007760;28;20135;-75
2023/10/26 05:27:47;;;;;;;34.70;17.80;;;8.10;99.90;;;;;;5010328;28;20033;-75
2023/10/26 05:30:13;;;;;;;71.40;18.48;;;8.10;99.90;;;;;;5011051;28;20022;-74
2023/10/26 05:32:39;;;;;;;26.75;17.38;;;8.00;99.90;;;;;;5011179;28;20037;-75
2023/10/26 05:35:05;;;;;;;29.23;17.92;;;8.00;99.90;;;;;;5004224;28;20010;-75
2023/10/26 05:37:31;;;;;;;28.85;18.15;;;8.00;99.90;;;;;;5002693;28;20720;-74
2023/10/26 05:39:57;;;;;;;32.50;17.38;;;8.00;99.90;;;;;;5011143;28;20025;-75
2023/10/26 05:42:22;;;;;;;25.52;16.80;;;8.00;99.90;;;;;;5009478;28;20026;-75
2023/10/26 05:44:48;;;;;;;30.20;17.00;;;8.00;99.90;;;;;;5010958;28;20026;-75
2023/10/26 05:47:15;;;;;;;28.45;17.88;;;8.00;99.90;;;;;;5009322;28;20117;-75
2023/10/26 05:49:41;;;;;;;27.60;18.15;;;8.00;99.90;;;;;;5010929;28;20025;-74
2023/10/26 05:52:07;;;;;;;29.02;16.85;;;8.00;99.90;;;;;;5007663;28;20051;-74
2023/10/26 05:54:32;;;;;;;27.75;17.35;;;8.00;99.90;;;;;;5008264;28;20057;-75
2023/10/26 05:56:58;;;;;;;25.77;16.38;;;7.90;99.90;;;;;;5006022;28;20049;-74
2023/10/26 05:59:23;;;;;;;28.88;17.17;;;7.90;99.90;;;;;;5007584;28;20049;-75
2023/10/26 06:01:49;;;;;;;31.38;17.77;;;7.90;99.90;;;;;;5005420;28;20553;-75
2023/10/26 06:04:15;;;;;;;32.15;18.08;;;8.00;99.90;;;;;;5007847;28;20031;-74
2023/10/26 06:06:41;;;;;;;40.05;20.15;;;8.00;99.90;;;;;;5010477;28;20025;-74
2023/10/26 06:09:06;;;;;;;45.65;19.73;;;8.00;99.90;;;;;;5007490;28;20503;-75
2023/10/26 06:11:32;;;;;;;36.53;19.20;;;8.00;99.90;;;;;;5009478;28;20028;-74
2023/10/26 06:13:57;;;;;;;35.65;20.02;;;8.10;99.90;;;;;;5007287;28;20398;-75
2023/10/26 06:16:23;;;;;;;54.15;22.38;;;8.10;99.90;;;;;;5010329;28;20026;-75
2023/10/26 06:18:48;;;;;;;38.10;21.40;;;8.10;99.90;;;;;;5010781;28;20038;-74
2023/10/26 06:21:14;;;;;;;46.42;22.35;;;8.20;99.90;;;;;;5006484;28;20387;-75
2023/10/26 06:23:40;;;;;;;95.57;24.27;;;8.20;99.90;;;;;;5008093;28;20026;-75
2023/10/26 06:26:05;;;;;;;58.08;23.42;;;8.20;99.90;;;;;;5011594;28;20056;-75
2023/10/26 06:28:31;;;;;;;66.40;25.40;;;8.30;99.90;;;;;;5007492;28;20026;-75
2023/10/26 06:31:10;;;;;;;102.60;25.48;;;8.30;99.90;;;;;;5011883;28;20467;-75
2023/10/26 06:33:37;;;;;;;70.35;25.83;;;8.40;99.90;;;;;;5011841;28;20029;-75
2023/10/26 06:36:02;;;;;;;121.35;27.40;;;8.40;99.90;;;;;;5011573;28;20030;-74
2023/10/26 06:38:29;;;;;;;114.47;27.80;;;8.50;99.90;;;;;;5011148;28;20122;-75
2023/10/26 06:40:54;;;;;;;133.38;29.73;;;8.50;99.90;;;;;;5007409;28;20367;-75
2023/10/26 06:43:22;;;;;;;103.03;28.17;;;8.50;99.90;;;;;;5006429;28;20026;-74
2023/10/26 06:45:48;;;;;;;64.88;27.70;;;8.60;99.90;;;;;;5008349;28;20022;-75
2023/10/26 06:48:13;;;;;;;76.60;28.60;;;8.60;99.90;;;;;;5011023;28;20079;-75
2023/10/26 06:50:39;;;;;;;79.70;27.92;;;8.70;99.90;;;;;;5010385;28;20037;-75
2023/10/26 06:53:04;;;;;;;96.32;29.52;;;8.70;99.90;;;;;;5010788;28;20050;-75
2023/10/26 06:55:35;;;;;;;86.93;29.30;;;8.70;99.90;;;;;;5010648;28;20022;-75
2023/10/26 06:58:01;;;;;;;85.05;28.73;;;8.70;99.90;;;;;;5011173;28;20409;-75
2023/10/26 07:00:26;;;;;;;95.03;28.67;;;8.80;99.90;;;;;;5011726;28;20494;-75
2023/10/26 07:02:52;;;;;;;93.82;29.50;;;8.80;99.90;;;;;;5028616;28;20096;-75
2023/10/26 07:05:18;;;;;;;110.18;29.00;;;8.80;99.90;;;;;;5010160;28;20050;-75
2023/10/26 07:07:44;;;;;;;73.03;27.80;;;8.80;99.90;;;;;;5013270;28;20032;-75
2023/10/26 07:10:14;;;;;;;73.18;27.75;;;8.80;99.90;;;;;;5014041;28;20034;-75
2023/10/26 07:12:42;;;;;;;95.88;28.17;;;8.80;99.90;;;;;;5011454;28;20072;-75
2023/10/26 07:15:08;;;;;;;112.68;28.45;;;8.90;99.90;;;;;;5013514;28;20037;-75
2023/10/26 07:17:34;;;;;;;58.53;26.48;;;8.90;99.90;;;;;;5013201;28;20018;-74
2023/10/26 07:20:02;;;;;;;71.65;27.25;;;8.90;99.90;;;;;;5015818;28;20045;-74
2023/10/26 07:22:28;;;;;;;58.08;26.98;;;8.90;99.90;;;;;;5014445;28;20014;-74
2023/10/26 07:24:53;;;;;;;81.95;27.85;;;8.90;99.90;;;;;;5014185;28;20054;-75
2023/10/26 07:27:19;;;;;;;78.88;26.55;;;8.90;99.90;;;;;;5014735;28;20037;-75
2023/10/26 07:29:46;;;;;;;79.50;28.67;;;9.00;99.90;;;;;;5008466;28;20030;-74
2023/10/26 07:32:12;;;;;;;100.70;28.27;;;9.00;99.90;;;;;;5009567;28;20060;-75
2023/10/26 07:34:37;;;;;;;89.20;27.75;;;9.00;99.90;;;;;;5006346;28;20026;-74
2023/10/26 07:37:03;;;;;;;96.78;27.63;;;9.10;99.90;;;;;;5009431;28;20030;-74
2023/10/26 07:39:31;;;;;;;86.78;28.98;;;9.10;99.90;;;;;;5009285;28;20033;-75
2023/10/26 07:41:57;;;;;;;86.95;28.35;;;9.10;99.90;;;;;;5005117;28;20022;-74
2023/10/26 07:44:23;;;;;;;88.90;29.40;;;9.20;99.90;;;;;;5009290;28;20026;-74
2023/10/26 07:46:48;;;;;;;95.22;28.48;;;9.20;99.90;;;;;;5008793;28;20545;-74
2023/10/26 07:49:14;;;;;;;80.18;30.63;;;9.20;99.90;;;;;;5009684;28;20127;-74
2023/10/26 07:51:39;;;;;;;103.13;29.83;;;9.30;99.90;;;;;;5008518;28;20044;-75
2023/10/26 07:54:05;;;;;;;84.28;28.92;;;9.30;99.90;;;;;;5008514;28;20026;-74
2023/10/26 07:56:30;;;;;;;76.00;29.27;;;9.40;99.90;;;;;;5009671;28;20460;-74
2023/10/26 07:58:56;;;;;;;90.85;30.38;;;9.40;99.90;;;;;;4995548;28;20024;-74
2023/10/26 08:01:22;;;;;;;84.55;29.52;;;9.50;99.90;;;;;;5015327;28;20064;-75
2023/10/26 08:03:48;;;;;;;82.70;30.77;;;9.50;99.90;;;;;;5008488;28;20025;-74
2023/10/26 08:06:14;;;;;;;92.03;30.75;;;9.50;99.90;;;;;;5016392;28;20026;-74
2023/10/26 08:08:40;;;;;;;81.85;30.05;;;9.50;99.90;;;;;;5016159;28;20087;-74
2023/10/26 08:11:14;;;;;;;76.93;28.38;;;9.60;99.90;;;;;;5016392;28;20057;-74
2023/10/26 08:13:40;;;;;;;71.45;28.58;;;9.60;99.90;;;;;;5016404;28;20143;-74
2023/10/26 08:16:06;;;;;;;94.63;30.35;;;9.70;99.90;;;;;;5005628;28;20037;-75
2023/10/26 08:18:32;;;;;;;89.38;28.08;;;9.70;99.90;;;;;;5016167;28;20033;-75
2023/10/26 08:20:58;;;;;;;100.57;30.00;;;9.70;99.90;;;;;;5016212;28;20092;-75
2023/10/26 08:23:23;;;;;;;84.32;28.65;;;9.80;99.90;;;;;;5016754;28;20033;-75
2023/10/26 08:25:49;;;;;;;91.80;28.00;;;9.80;99.90;;;;;;5015896;28;20029;-74
2023/10/26 08:28:15;;;;;;;86.03;28.33;;;9.80;99.90;;;;;;5016178;28;20022;-74
2023/10/26 08:30:41;;;;;;;75.18;27.45;;;9.80;99.90;;;;;;5015289;28;20037;-75
2023/10/26 08:33:07;;;;;;;74.38;28.75;;;9.80;99.90;;;;;;5014343;28;20030;-74
2023/10/26 08:35:33;;;;;;;75.78;28.48;;;9.90;99.90;;;;;;5014076;28;20058;-74
2023/10/26 08:37:58;;;;;;;77.47;29.48;;;9.90;99.90;;;;;;5016782;28;20065;-74
2023/10/26 08:40:24;;;;;;;82.38;29.95;;;10.00;99.90;;;;;;5015232;28;20065;-74
2023/10/26 08:42:50;;;;;;;79.75;29.65;;;10.10;99.90;;;;;;5016046;28;20014;-74
2023/10/26 08:45:24;;;;;;;73.35;27.20;;;10.10;99.90;;;;;;5015902;28;20375;-74
2023/10/26 08:47:50;;;;;;;71.15;28.25;;;10.20;99.90;;;;;;5016342;28;20092;-75
2023/10/26 08:50:21;;;;;;;67.32;26.65;;;10.20;99.90;;;;;;5018045;28;20433;-75
2023/10/26 08:52:53;;;;;;;68.93;27.77;;;10.20;99.90;;;;;;5015180;28;20092;-74
2023/10/26 08:55:18;;;;;;;67.70;27.00;;;10.30;99.90;;;;;;5013725;28;20084;-74
2023/10/26 08:57:50;;;;;;;69.07;28.00;;;10.40;99.90;;;;;;5005772;28;20033;-74
2023/10/26 09:00:16;;;;;;;66.80;28.42;;;10.40;99.90;;;;;;5013110;28;20064;-74
2023/10/26 09:02:43;;;;;;;70.78;28.75;;;10.50;99.90;;;;;;5005709;28;20414;-75
2023/10/26 09:05:10;;;;;;;68.40;28.83;;;10.60;99.90;;;;;;5012260;28;20105;-75
2023/10/26 09:07:36;;;;;;;72.07;28.67;;;10.60;99.90;;;;;;5015289;28;20053;-75
2023/10/26 09:10:02;;;;;;;70.25;28.55;;;10.70;99.90;;;;;;5015985;28;20061;-74
2023/10/26 09:12:27;;;;;;;69.43;29.08;;;10.80;99.90;;;;;;5015312;28;20018;-75
2023/10/26 09:15:05;;;;;;;66.32;28.17;;;10.90;99.90;;;;;;5012786;28;20034;-75
2023/10/26 09:17:32;;;;;;;61.70;27.20;;;11.00;99.90;;;;;;5011849;28;20372;-74
2023/10/26 09:20:13;;;;;;;63.70;27.55;;;11.00;99.90;;;;;;5011763;28;20105;-74
2023/10/26 09:22:40;;;;;;;63.65;26.90;;;11.00;99.90;;;;;;5007181;28;20036;-74
2023/10/26 09:25:10;;;;;;;56.38;25.45;;;11.10;99.90;;;;;;5008776;28;20101;-75
2023/10/26 09:27:36;;;;;;;62.20;25.85;;;11.10;99.90;;;;;;5012186;28;20026;-75
2023/10/26 09:30:03;;;;;;;58.20;26.08;;;11.10;99.90;;;;;;5012370;28;20030;-74
2023/10/26 09:32:36;;;;;;;54.50;25.58;;;11.10;99.90;;;;;;5011984;28;20026;-75
2023/10/26 09:35:03;;;;;;;58.10;26.88;;;11.10;99.90;;;;;;5001885;28;20036;-75
2023/10/26 09:37:29;;;;;;;61.63;27.83;;;11.10;99.90;;;;;;5010962;28;20022;-74
2023/10/26 09:39:57;;;;;;;64.38;28.70;;;11.10;99.90;;;;;;5011411;28;20022;-75
2023/10/26 09:42:24;;;;;;;63.13;27.35;;;11.10;99.90;;;;;;5006447;28;20387;-75
2023/10/26 09:44:50;;;;;;;63.05;28.73;;;11.10;99.90;;;;;;5011546;28;20041;-74
2023/10/26 09:47:17;;;;;;;62.38;28.88;;;11.20;99.90;;;;;;5011495;28;20034;-75
2023/10/26 09:49:42;;;;;;;60.00;27.45;;;11.20;99.90;;;;;;5010685;28;20072;-75
2023/10/26 09:52:08;;;;;;;70.30;29.35;;;11.20;99.90;;;;;;5011096;28;20497;-75
2023/10/26 09:54:40;;;;;;;61.22;28.45;;;11.20;99.90;;;;;;5011382;28;20030;-75
2023/10/26 09:57:26;;;;;;;61.83;29.45;;;11.20;99.90;;;;;;5012080;28;20109;-75
2023/10/26 09:59:53;;;;;;;60.60;27.92;;;11.20;99.90;;;;;;5011846;28;20116;-74
2023/10/26 10:02:20;;;;;;;58.47;28.85;;;11.30;99.90;;;;;;5011123;28;20474;-75
2023/10/26 10:04:46;;;;;;;59.20;29.45;;;11.30;99.90;;;;;;5010690;28;20379;-75
2023/10/26 10:07:38;;;;;;;59.00;30.00;;;11.40;99.90;;;;;;5010901;28;20033;-75
2023/10/26 10:10:06;;;;;;;57.90;29.38;;;11.50;99.90;;;;;;5003536;28;20041;-75
2023/10/26 10:12:33;;;;;;;59.42;30.50;;;11.50;99.90;;;;;;5011591;28;20429;-75
2023/10/26 10:15:03;;;;;;;58.63;30.10;;;11.60;99.90;;;;;;5011687;28;20025;-74
2023/10/26 10:17:44;;;;;;;58.53;30.17;;;11.60;99.90;;;;;;5010264;28;20109;-75
2023/10/26 10:20:18;;;;;;;59.85;30.17;;;11.80;99.90;;;;;;5010925;28;20032;-75
2023/10/26 10:22:44;;;;;;;56.60;30.00;;;11.90;99.90;;;;;;5011526;28;20028;-75
2023/10/26 10:25:10;;;;;;;53.70;29.10;;;12.00;99.90;;;;;;5009868;28;20026;-75
2023/10/26 10:27:40;;;;;;;51.38;28.25;;;12.20;99.90;;;;;;5009471;28;20034;-74
2023/10/26 10:30:10;;;;;;;49.83;27.88;;;12.30;99.90;;;;;;5014636;28;20030;-74
2023/10/26 10:32:47;;;;;;;45.78;26.23;;;12.50;99.90;;;;;;5015059;28;20022;-74
2023/10/26 10:35:21;;;;;;;41.47;24.90;;;12.60;99.90;;;;;;5015453;28;20121;-73
2023/10/26 10:38:20;;;;;;;37.00;23.13;;;12.60;99.90;;;;;;5006344;28;20066;-74
2023/10/26 10:40:55;;;;;;;37.45;23.58;;;12.70;99.90;;;;;;5014961;28;20378;-74
2023/10/26 10:43:36;;;;;;;34.73;21.13;;;12.80;99.90;;;;;;5015029;28;20029;-74
2023/10/26 10:46:31;;;;;;;34.28;22.08;;;12.90;99.90;;;;;;5014588;28;20291;-74
2023/10/26 10:48:58;;;;;;;33.80;20.83;;;13.00;99.90;;;;;;5016013;28;20144;-74
2023/10/26 10:51:44;;;;;;;32.50;19.73;;;13.00;99.90;;;;;;5009874;28;20018;-73
2023/10/26 10:54:17;;;;;;;30.42;19.08;;;12.90;99.90;;;;;;5014196;28;20037;-74
2023/10/26 10:56:46;;;;;;;28.85;17.83;;;13.00;99.90;;;;;;5014339;28;20089;-74
2023/10/26 10:59:16;;;;;;;26.70;17.33;;;13.00;99.90;;;;;;5009825;28;20053;-74
2023/10/26 11:01:42;;;;;;;32.60;19.52;;;13.00;99.90;;;;;;5010815;28;20525;-74
2023/10/26 11:04:10;;;;;;;27.45;17.63;;;13.10;99.90;;;;;;5011314;28;20085;-74
2023/10/26 11:06:44;;;;;;;28.00;17.05;;;13.20;99.90;;;;;;5014611;28;20022;-74
2023/10/26 11:09:27;;;;;;;23.77;14.50;;;13.40;99.90;;;;;;5014619;28;20108;-74
2023/10/26 11:11:53;;;;;;;23.05;14.98;;;13.50;99.90;;;;;;5010191;28;20041;-74
2023/10/26 11:14:20;;;;;;;22.77;13.68;;;13.60;99.90;;;;;;5015141;28;20018;-74
2023/10/26 11:16:48;;;;;;;18.40;12.57;;;13.70;99.90;;;;;;5014454;28;20234;-74
2023/10/26 11:19:13;;;;;;;16.00;10.90;;;13.70;99.90;;;;;;5013745;28;20037;-74
2023/10/26 11:21:39;;;;;;;16.88;11.27;;;13.80;99.90;;;;;;5013446;28;20030;-74
2023/10/26 11:24:06;;;;;;;15.45;10.07;;;13.90;99.90;;;;;;5015158;28;20030;-74
2023/10/26 11:26:31;;;;;;;12.77;9.38;;;14.00;99.90;;;;;;5014283;28;20038;-74
2023/10/26 11:29:00;;;;;;;13.27;9.32;;;14.10;99.90;;;;;;5011303;28;20034;-75
2023/10/26 11:31:34;;;;;;;12.80;9.18;;;14.10;99.90;;;;;;5013302;28;20022;-74
2023/10/26 11:34:05;;;;;;;13.63;8.88;;;14.20;99.90;;;;;;5014010;28;20028;-74
2023/10/26 11:36:31;;;;;;;11.57;7.88;;;14.20;99.90;;;;;;5013578;28;20038;-74
2023/10/26 11:38:57;;;;;;;12.15;8.07;;;14.10;99.90;;;;;;5012558;28;20040;-75
2023/10/26 11:41:29;;;;;;;11.60;7.63;;;14.00;99.90;;;;;;5012000;28;20033;-74
2023/10/26 11:43:58;;;;;;;12.32;8.93;;;14.00;99.90;;;;;;5013938;28;20025;-74
2023/10/26 11:46:36;;;;;;;11.35;8.23;;;14.00;99.90;;;;;;5013385;28;20093;-74
2023/10/26 11:49:03;;;;;;;12.90;8.23;;;13.90;99.90;;;;;;5008338;28;20022;-74
2023/10/26 11:51:30;;;;;;;13.60;8.75;;;13.90;99.90;;;;;;5014232;28;20526;-74
2023/10/26 11:54:07;;;;;;;15.68;10.55;;;13.90;99.90;;;;;;5013805;28;20333;-75
2023/10/26 11:56:33;;;;;;;17.33;11.30;;;14.00;99.90;;;;;;5013494;28;20083;-74
2023/10/26 11:58:58;;;;;;;15.32;10.10;;;13.90;99.90;;;;;;5014049;28;20097;-75
2023/10/26 12:01:24;;;;;;;15.10;9.85;;;13.90;99.90;;;;;;5014556;28;20026;-75
2023/10/26 12:03:49;;;;;;;14.38;9.38;;;13.90;99.90;;;;;;5013522;28;20092;-75
2023/10/26 12:06:15;;;;;;;15.85;10.05;;;13.80;99.90;;;;;;5013314;28;20038;-75
2023/10/26 12:08:41;;;;;;;15.90;10.07;;;13.80;99.90;;;;;;5014251;28;20056;-74
2023/10/26 12:11:06;;;;;;;17.90;11.20;;;13.80;99.90;;;;;;5012991;28;20465;-74
2023/10/26 12:13:34;;;;;;;19.08;12.15;;;13.70;99.90;;;;;;5013099;28;20057;-75
2023/10/26 12:16:00;;;;;;;17.95;11.43;;;13.70;99.90;;;;;;5013940;28;20030;-74
2023/10/26 12:18:27;;;;;;;17.95;11.18;;;13.70;99.90;;;;;;5014000;28;20402;-75
2023/10/26 12:20:52;;;;;;;17.63;11.68;;;13.70;99.90;;;;;;5014126;28;20570;-74
2023/10/26 12:23:18;;;;;;;20.45;12.63;;;13.60;99.90;;;;;;5013714;28;20053;-74
2023/10/26 12:25:43;;;;;;;18.35;12.05;;;13.60;99.90;;;;;;5010671;28;20041;-74
2023/10/26 12:28:09;;;;;;;18.77;12.10;;;13.50;99.90;;;;;;5006629;28;20042;-74
2023/10/26 12:30:34;;;;;;;21.40;12.43;;;13.50;99.90;;;;;;5011229;28;20079;-74
2023/10/26 12:33:00;;;;;;;18.48;12.32;;;13.40;99.90;;;;;;5009904;28;20014;-74